Terminal Aerodrome Forecast
Issued by NWS

Home | Current Version | Previous Version | Text Only | Print | Product List | Glossary On
Versions: 1 2 3 4 5 6 7 8 9 10 11 12 13
000
FTUS42 KTAE 221120
TAFABY
TAF
KABY 221120Z 2212/2312 10010KT P6SM SCT020 BKN030
     FM221500 12012G18KT P6SM VCSH SCT015 BKN025
     FM221800 13015G25KT 4SM TSRA BKN025CB
     FM230400 13012KT 4SM RA OVC007=

USA.gov is the U.S. government's official web portal to all federal, state and local government web resources and services.